Terminal Aerodrome Forecast
Issued by NWS

Home | Current Version | Previous Version | Text Only | Print | Product List | Glossary On
Versions: 1 2 3 4 5 6 7 8 9 10 11 12 13 14 15 16 17 18 19 20 21
000
FTUS41 KBTV 221130
TAFSLK
TAF
KSLK 221130Z 2212/2312 06007KT 2SM BR OVC004
      TEMPO 2212/2216 1SM -DZ BR VV002
     FM221600 06010KT 1SM -RA BR OVC004
     FM230000 06011KT 3/4SM -RA BR OVC002=

USA.gov is the U.S. government's official web portal to all federal, state and local government web resources and services.